Time;durP1;ratioP1;P1;durP2;ratioP2;P2;SDS_P1;SDS_P2;PMS_P1;PMS_P2;Temp;Humidity;BMP_temperature;BMP_pressure;BME280_temperature;BME280_humidity;BME280_pressure;Samples;Min_cycle;Max_cycle;Signal;HPM_P1;HPM_P2
2023/03/22 00:00:15;;;;;;;41.13;31.13;;;;;;;9.99;100.00;96054.03;4938278;28;20035;-89
2023/03/22 00:02:42;;;;;;;11.55;8.07;;;;;;;9.85;100.00;96062.53;4933209;29;20035;-89
2023/03/22 00:05:08;;;;;;;10.50;6.40;;;;;;;9.88;100.00;96055.16;4937117;28;20125;-89
2023/03/22 00:07:34;;;;;;;11.30;5.63;;;;;;;9.87;100.00;96052.69;4920647;29;20114;-89
2023/03/22 00:10:00;;;;;;;10.03;5.60;;;;;;;9.87;100.00;96055.31;4938637;29;20042;-89
2023/03/22 00:12:25;;;;;;;8.70;5.90;;;;;;;9.88;100.00;96057.78;4926783;28;20131;-89
2023/03/22 00:14:56;;;;;;;7.93;5.77;;;;;;;9.85;100.00;96070.41;4922053;29;20031;-89
2023/03/22 00:17:26;;;;;;;8.20;5.20;;;;;;;9.82;100.00;96058.41;4948437;28;20031;-88
2023/03/22 00:19:53;;;;;;;10.33;5.40;;;;;;;9.83;100.00;96065.31;4938433;29;20039;-89
2023/03/22 00:22:19;;;;;;;8.17;6.13;;;;;;;9.75;100.00;96062.66;4922279;29;20039;-88
2023/03/22 00:24:46;;;;;;;12.77;5.43;;;;;;;9.79;100.00;96063.16;4938978;29;20114;-89
2023/03/22 00:27:25;;;;;;;8.40;5.40;;;;;;;9.78;100.00;96062.34;4956582;29;20035;-89
2023/03/22 00:29:52;;;;;;;7.43;4.70;;;;;;;9.74;100.00;96054.94;4922903;29;20043;-89
2023/03/22 00:32:18;;;;;;;9.07;5.23;;;;;;;9.64;100.00;96061.13;4921888;29;20482;-89
2023/03/22 00:34:50;;;;;;;10.70;5.10;;;;;;;9.61;100.00;96065.88;4930266;29;20054;-89
2023/03/22 00:37:16;;;;;;;8.57;5.07;;;;;;;9.57;100.00;96068.00;4952541;29;20035;-89
2023/03/22 00:39:42;;;;;;;10.30;5.50;;;;;;;9.58;100.00;96055.69;4960401;28;20039;-89
2023/03/22 00:42:08;;;;;;;7.73;4.90;;;;;;;9.36;100.00;96054.44;4927364;29;20050;-89
2023/03/22 00:44:34;;;;;;;9.60;5.57;;;;;;;9.12;100.00;96058.56;4963446;28;20617;-89
2023/03/22 00:47:00;;;;;;;9.43;5.20;;;;;;;9.24;100.00;96053.88;4931088;28;20094;-89
2023/03/22 00:49:26;;;;;;;9.77;5.67;;;;;;;9.17;100.00;96058.91;4920461;29;20145;-89
2023/03/22 00:52:14;;;;;;;8.03;5.33;;;;;;;9.12;100.00;96055.94;4937394;29;20035;-88
2023/03/22 00:54:40;;;;;;;12.17;6.13;;;;;;;9.05;100.00;96049.66;4928421;29;20031;-89
2023/03/22 00:57:07;;;;;;;9.77;5.83;;;;;;;9.05;100.00;96043.59;4925450;28;20039;-89
2023/03/22 00:59:38;;;;;;;10.33;5.50;;;;;;;8.97;100.00;96046.97;4932821;29;20035;-89
2023/03/22 01:02:08;;;;;;;11.13;5.50;;;;;;;8.92;100.00;96047.47;4955985;28;20082;-89
2023/03/22 01:04:35;;;;;;;7.77;5.03;;;;;;;8.92;100.00;96046.59;4923188;29;20031;-88
2023/03/22 01:07:06;;;;;;;10.73;5.17;;;;;;;8.78;100.00;96049.78;4938757;29;20034;-88
2023/03/22 01:09:34;;;;;;;7.07;4.60;;;;;;;8.79;100.00;96038.34;4928359;29;20122;-88
2023/03/22 01:12:02;;;;;;;9.53;5.43;;;;;;;8.74;100.00;96036.97;4926545;29;20042;-89
2023/03/22 01:14:30;;;;;;;8.87;5.30;;;;;;;8.78;100.00;96031.44;4951750;28;20039;-88
2023/03/22 01:16:56;;;;;;;13.30;7.00;;;;;;;8.73;100.00;96030.09;4938768;29;20039;-88
2023/03/22 01:19:26;;;;;;;9.97;5.37;;;;;;;8.78;100.00;96027.00;4921390;29;20028;-88
2023/03/22 01:21:54;;;;;;;11.73;5.37;;;;;;;8.72;100.00;96033.72;4937921;28;20045;-89
2023/03/22 01:24:23;;;;;;;8.50;5.73;;;;;;;8.67;100.00;96035.13;4920681;29;20131;-89
2023/03/22 01:26:50;;;;;;;10.40;5.83;;;;;;;8.57;100.00;96043.09;4938516;29;20039;-89
2023/03/22 01:29:16;;;;;;;7.73;5.40;;;;;;;8.51;100.00;96038.44;4922113;29;20044;-89
2023/03/22 01:31:42;;;;;;;10.27;6.23;;;;;;;8.38;100.00;96040.63;4932548;29;20036;-88
2023/03/22 01:34:11;;;;;;;12.80;6.47;;;;;;;8.33;100.00;96042.84;4937298;28;20034;-88
2023/03/22 01:36:37;;;;;;;10.20;6.97;;;;;;;8.29;100.00;96033.66;4926971;28;20682;-89
2023/03/22 01:39:06;;;;;;;11.43;5.70;;;;;;;8.23;100.00;96038.50;4936588;29;20114;-88
2023/03/22 01:41:33;;;;;;;20.57;7.47;;;;;;;8.17;100.00;96033.84;4938812;29;20066;-88
2023/03/22 01:44:21;;;;;;;9.37;6.33;;;;;;;8.07;100.00;96033.09;4936565;29;20501;-88
2023/03/22 01:46:49;;;;;;;11.70;7.53;;;;;;;8.10;100.00;96030.19;4928060;29;20047;-88
2023/03/22 01:49:28;;;;;;;10.53;6.53;;;;;;;8.16;100.00;96024.34;4920564;29;20062;-88
2023/03/22 01:52:05;;;;;;;11.60;6.43;;;;;;;8.16;100.00;96021.72;4936073;29;20039;-88
2023/03/22 01:54:54;;;;;;;12.43;6.07;;;;;;;8.12;100.00;96020.38;4938972;29;20106;-89
2023/03/22 01:57:43;;;;;;;12.40;6.33;;;;;;;8.15;100.00;96017.47;4926216;29;20114;-88
2023/03/22 02:00:24;;;;;;;9.50;6.43;;;;;;;8.08;100.00;96013.81;4953345;28;20035;-89
2023/03/22 02:03:06;;;;;;;14.93;6.90;;;;;;;8.05;100.00;96008.88;4918284;29;20023;-89
2023/03/22 02:05:41;;;;;;;11.93;7.33;;;;;;;8.03;100.00;96011.63;4936333;29;20039;-88
2023/03/22 02:08:09;;;;;;;11.83;6.97;;;;;;;7.99;100.00;96001.59;4944366;29;20055;-88
2023/03/22 02:11:13;;;;;;;10.17;6.50;;;;;;;8.00;100.00;95993.59;4919549;29;20784;-89
2023/03/22 02:14:09;;;;;;;13.07;7.07;;;;;;;8.01;100.00;95999.63;4924274;28;20173;-88
2023/03/22 02:17:18;;;;;;;11.37;6.40;;;;;;;8.03;100.00;95998.53;4936768;29;20051;-89
2023/03/22 02:20:29;;;;;;;12.20;7.50;;;;;;;8.00;100.00;96003.25;4924262;28;20425;-88
2023/03/22 02:23:10;;;;;;;9.17;6.70;;;;;;;7.95;100.00;95997.63;4933939;29;20138;-89
2023/03/22 02:26:04;;;;;;;11.30;7.30;;;;;;;7.94;100.00;95998.59;4921238;28;20630;-88
2023/03/22 02:29:11;;;;;;;12.10;7.35;;;;;;;7.97;100.00;95993.06;4935688;28;20073;-88
2023/03/22 02:31:37;;;;;;;13.87;6.30;;;;;;;7.87;100.00;95989.69;4881702;29;20067;-88
2023/03/22 02:34:06;;;;;;;10.53;6.57;;;;;;;7.80;100.00;95992.91;4929682;28;20114;-88
2023/03/22 02:40:23;;;;;;;13.90;8.00;;;;;;;7.67;100.00;95983.75;4935344;29;20075;-89
2023/03/22 02:42:55;;;;;;;10.60;7.33;;;;;;;7.61;100.00;95969.44;4931368;29;20039;-88
2023/03/22 02:45:44;;;;;;;11.90;6.93;;;;;;;7.62;100.00;95976.34;4955610;28;20035;-88
2023/03/22 02:48:21;;;;;;;14.13;7.50;;;;;;;7.61;100.00;95979.91;4914595;29;20042;-89
2023/03/22 02:50:47;;;;;;;10.67;6.80;;;;;;;7.59;100.00;95971.41;4927450;29;20035;-88
2023/03/22 02:53:31;;;;;;;13.30;7.53;;;;;;;7.37;100.00;95972.63;4925064;29;20028;-88
2023/03/22 02:56:13;;;;;;;11.23;7.13;;;;;;;7.20;100.00;95971.59;4945650;29;20031;-89
2023/03/22 02:58:56;;;;;;;9.57;6.67;;;;;;;7.17;100.00;95974.50;4925863;29;20049;-88
2023/03/22 03:01:29;;;;;;;9.87;7.03;;;;;;;7.16;100.00;95970.25;4935512;28;20026;-88
2023/03/22 03:04:03;;;;;;;12.70;7.57;;;;;;;7.16;100.00;95978.09;4979280;28;20045;-88
2023/03/22 03:06:34;;;;;;;12.00;7.03;;;;;;;7.13;100.00;95970.53;4931342;29;20047;-88
2023/03/22 03:09:05;;;;;;;12.93;7.43;;;;;;;7.11;100.00;95972.50;4941571;28;20101;-88
2023/03/22 03:11:38;;;;;;;9.23;6.43;;;;;;;7.18;100.00;95973.56;4943857;29;20186;-88
2023/03/22 03:14:04;;;;;;;12.90;7.18;;;;;;;7.16;100.00;95980.72;4933204;29;20036;-88
2023/03/22 03:16:36;;;;;;;9.60;6.50;;;;;;;7.15;100.00;95975.66;4952758;28;20101;-88
2023/03/22 03:19:24;;;;;;;12.47;6.57;;;;;;;7.07;100.00;95966.69;4953993;28;20095;-88
2023/03/22 03:22:04;;;;;;;11.90;7.07;;;;;;;6.94;100.00;95975.84;4935722;28;20039;-89
2023/03/22 03:25:05;;;;;;;11.97;7.27;;;;;;;6.91;100.00;95981.34;4934938;29;20150;-89
2023/03/22 03:27:42;;;;;;;11.43;7.13;;;;;;;6.85;100.00;95982.75;4926180;29;20039;-89
2023/03/22 03:30:15;;;;;;;10.33;6.90;;;;;;;6.84;100.00;95983.72;4921173;29;20035;-89
2023/03/22 03:32:55;;;;;;;11.98;6.03;;;;;;;6.81;100.00;95986.63;4944866;28;20030;-87
2023/03/22 03:35:25;;;;;;;10.20;5.73;;;;;;;6.73;100.00;95983.88;4936200;29;20044;-88
2023/03/22 03:38:07;;;;;;;9.33;5.70;;;;;;;6.68;100.00;95986.94;4929355;28;20062;-88
2023/03/22 03:40:44;;;;;;;9.63;5.87;;;;;;;6.64;100.00;95982.97;4930432;28;20034;-88
2023/03/22 03:43:13;;;;;;;10.27;5.57;;;;;;;6.64;100.00;95980.34;4960453;28;20035;-88
2023/03/22 03:45:39;;;;;;;10.13;5.17;;;;;;;6.67;100.00;95987.06;4939715;29;20035;-88
2023/03/22 03:48:12;;;;;;;11.23;5.40;;;;;;;6.69;100.00;95982.53;4943500;29;20093;-88
2023/03/22 03:50:49;;;;;;;11.10;5.40;;;;;;;6.71;100.00;95991.88;4933082;29;20796;-88
2023/03/22 03:53:21;;;;;;;7.50;4.53;;;;;;;6.74;100.00;95989.00;4931957;29;20173;-88
2023/03/22 03:55:47;;;;;;;9.70;4.90;;;;;;;6.65;100.00;95989.81;4953802;28;20046;-88
2023/03/22 03:58:15;;;;;;;7.67;4.83;;;;;;;6.65;100.00;95989.81;4919671;29;20055;-88
2023/03/22 04:00:57;;;;;;;9.97;5.07;;;;;;;6.75;100.00;95988.00;4932305;28;20027;-88
2023/03/22 04:03:23;;;;;;;9.63;5.60;;;;;;;6.74;100.00;95983.75;4937451;29;20039;-89
2023/03/22 04:06:09;;;;;;;8.77;4.70;;;;;;;6.75;100.00;95988.00;4940634;29;20112;-88
2023/03/22 04:08:40;;;;;;;9.53;5.07;;;;;;;6.82;100.00;95986.47;4937266;29;20041;-88
2023/03/22 04:11:15;;;;;;;8.17;4.63;;;;;;;6.77;100.00;95978.25;4943948;29;20038;-88
2023/03/22 04:13:58;;;;;;;11.37;4.80;;;;;;;6.73;100.00;95989.13;4933967;29;20027;-88
2023/03/22 04:16:27;;;;;;;8.20;4.17;;;;;;;6.72;100.00;95990.91;4939678;29;20114;-89
2023/03/22 04:18:53;;;;;;;6.80;4.17;;;;;;;6.71;100.00;95996.28;4938305;29;20054;-88
2023/03/22 04:21:18;;;;;;;8.80;4.73;;;;;;;6.72;100.00;95990.91;4921133;29;20033;-88
2023/03/22 04:23:55;;;;;;;9.40;3.83;;;;;;;6.68;100.00;95992.16;4936769;29;20102;-88
2023/03/22 04:26:26;;;;;;;6.80;4.03;;;;;;;6.63;100.00;95994.34;4937921;29;20034;-88
2023/03/22 04:29:11;;;;;;;8.10;4.67;;;;;;;6.55;100.00;95994.25;4929512;29;20046;-88
2023/03/22 04:31:46;;;;;;;11.17;5.47;;;;;;;6.45;100.00;95989.03;4914483;29;20102;-88
2023/03/22 04:34:30;;;;;;;15.87;9.57;;;;;;;6.34;100.00;95989.19;4950384;28;20046;-88
2023/03/22 04:37:01;;;;;;;17.13;10.07;;;;;;;6.23;100.00;95992.75;4919145;28;20031;-88
2023/03/22 04:39:35;;;;;;;9.57;7.13;;;;;;;6.21;100.00;95984.25;4938413;28;20130;-88
2023/03/22 04:42:29;;;;;;;11.00;6.17;;;;;;;6.29;100.00;95988.78;4938973;28;20054;-88
2023/03/22 04:45:13;;;;;;;12.13;9.27;;;;;;;6.21;100.00;95992.09;4940596;29;20070;-88
2023/03/22 04:47:42;;;;;;;19.40;11.47;;;;;;;6.25;100.00;95993.44;4955676;28;20287;-88
2023/03/22 04:50:09;;;;;;;16.13;11.30;;;;;;;6.22;100.00;95988.50;4952184;28;20039;-89
2023/03/22 04:52:48;;;;;;;17.97;10.93;;;;;;;6.24;100.00;95988.38;4948379;29;20170;-88
2023/03/22 04:55:16;;;;;;;12.90;8.27;;;;;;;6.18;100.00;95989.75;4928758;28;20043;-88
2023/03/22 04:57:43;;;;;;;12.53;7.13;;;;;;;6.18;100.00;95988.94;4947085;28;20052;-88
2023/03/22 05:00:10;;;;;;;12.70;7.43;;;;;;;6.01;100.00;95990.44;4937048;29;20911;-88
2023/03/22 05:02:40;;;;;;;10.47;5.83;;;;;;;6.14;100.00;95993.59;4922293;29;20126;-88
2023/03/22 05:05:22;;;;;;;8.10;4.55;;;;;;;6.07;100.00;95993.34;4937939;28;20177;-88
2023/03/22 05:07:49;;;;;;;12.00;7.07;;;;;;;6.01;100.00;95993.06;4928802;29;20059;-88
2023/03/22 05:10:15;;;;;;;21.87;13.50;;;;;;;5.99;100.00;95992.34;4919963;29;20070;-89
2023/03/22 05:12:41;;;;;;;18.90;12.13;;;;;;;6.11;100.00;95997.31;4941532;29;20031;-93
2023/03/22 05:15:20;;;;;;;18.87;12.23;;;;;;;6.12;100.00;95985.06;4924257;29;20027;-91
2023/03/22 05:17:48;;;;;;;15.67;8.20;;;;;;;6.09;100.00;95988.78;4925658;29;20027;-91
2023/03/22 05:20:14;;;;;;;12.10;6.10;;;;;;;6.10;100.00;95986.97;4940320;29;20023;-91
2023/03/22 05:22:55;;;;;;;11.27;6.57;;;;;;;6.08;100.00;95988.94;4924826;29;20031;-91
2023/03/22 05:25:23;;;;;;;9.60;5.40;;;;;;;6.11;100.00;95984.25;4924041;29;20035;-91
2023/03/22 05:27:53;;;;;;;8.63;5.00;;;;;;;6.13;100.00;95981.50;4941343;28;20071;-91
2023/03/22 05:30:37;;;;;;;10.00;5.20;;;;;;;6.17;100.00;95982.03;4945693;29;20138;-91
2023/03/22 05:33:11;;;;;;;12.63;5.57;;;;;;;6.21;100.00;95983.44;4937723;29;20393;-91
2023/03/22 05:36:22;;;;;;;8.73;4.90;;;;;;;6.25;100.00;95975.16;4924331;29;20035;-91
2023/03/22 05:39:17;;;;;;;8.43;3.97;;;;;;;6.38;100.00;95978.31;4940296;29;20073;-90
2023/03/22 05:41:44;;;;;;;8.93;3.67;;;;;;;6.44;100.00;95971.72;4924737;29;20102;-91
2023/03/22 05:44:10;;;;;;;8.83;3.63;;;;;;;6.50;100.00;95971.13;4928764;29;20059;-91
2023/03/22 05:46:48;;;;;;;5.93;3.47;;;;;;;6.64;100.00;95964.66;4925265;29;20113;-91
2023/03/22 05:49:33;;;;;;;8.17;3.47;;;;;;;6.76;100.00;95957.47;4926911;29;20444;-90
2023/03/22 05:52:03;;;;;;;9.37;3.50;;;;;;;6.79;100.00;95963.25;4932300;29;20027;-90
2023/03/22 05:54:40;;;;;;;9.57;3.87;;;;;;;6.73;100.00;95952.53;4941679;29;20035;-91
2023/03/22 05:57:05;;;;;;;9.30;4.30;;;;;;;6.93;100.00;95956.72;4936750;29;20517;-90
2023/03/22 05:59:31;;;;;;;8.57;4.77;;;;;;;7.12;100.00;95950.59;4945670;29;20490;-90
2023/03/22 06:01:57;;;;;;;7.87;3.77;;;;;;;7.09;100.00;95937.81;4944216;29;20035;-90
2023/03/22 06:04:25;;;;;;;10.90;4.77;;;;;;;7.12;100.00;95941.94;4947033;28;20361;-90
2023/03/22 06:06:58;;;;;;;7.97;3.70;;;;;;;7.22;100.00;95942.72;4921136;29;20381;-90
2023/03/22 06:09:56;;;;;;;9.50;4.57;;;;;;;7.41;100.00;95941.75;4945614;29;20035;-90
2023/03/22 06:12:25;;;;;;;5.97;3.73;;;;;;;7.59;100.00;95941.81;4938028;29;20042;-90
2023/03/22 06:18:50;;;;;;;11.40;3.83;;;;;;;7.80;100.00;95932.69;4932578;29;20067;-91
2023/03/22 06:21:15;;;;;;;7.47;3.37;;;;;;;8.13;100.00;95930.34;4912716;29;20095;-91
2023/03/22 06:23:42;;;;;;;8.87;3.63;;;;;;;8.61;100.00;95931.72;4936873;29;20031;-90
2023/03/22 06:26:10;;;;;;;6.60;3.27;;;;;;;8.98;100.00;95926.16;4924165;29;20450;-91
2023/03/22 06:28:37;;;;;;;5.97;3.20;;;;;;;9.26;100.00;95915.50;4921756;29;20426;-91
2023/03/22 06:31:11;;;;;;;8.33;4.30;;;;;;;9.68;100.00;95907.53;4926857;29;20036;-91
2023/03/22 06:34:00;;;;;;;7.63;3.40;;;;;;;10.05;100.00;95908.88;4949813;29;20044;-90
2023/03/22 06:36:35;;;;;;;8.93;3.97;;;;;;;10.40;100.00;95898.25;4939363;28;20019;-92
2023/03/22 06:39:10;;;;;;;6.67;2.70;;;;;;;10.83;100.00;95892.56;4940167;28;20024;-92
2023/03/22 06:41:39;;;;;;;5.63;3.10;;;;;;;11.12;100.00;95898.22;4927787;29;20494;-91
2023/03/22 06:44:05;;;;;;;5.60;2.80;;;;;;;11.47;100.00;95892.47;4924954;29;20028;-92
2023/03/22 06:46:49;;;;;;;7.40;2.80;;;;;;;11.94;100.00;95894.19;4938693;29;20046;-91
2023/03/22 06:49:57;;;;;;;8.03;3.50;;;;;;;12.11;100.00;95899.31;4942332;29;20037;-92
2023/03/22 06:52:55;;;;;;;;;;;;;;;12.30;100.00;95887.44;4927484;29;20238;-92
2023/03/22 06:55:36;;;;;;;6.47;2.90;;;;;;;12.47;100.00;95888.94;4924586;29;20029;-92
2023/03/22 06:58:11;;;;;;;6.30;3.40;;;;;;;12.82;100.00;95892.72;4928992;29;20090;-92
2023/03/22 07:00:46;;;;;;;8.73;3.40;;;;;;;12.62;100.00;95895.06;4940101;29;20046;-92
2023/03/22 07:03:14;;;;;;;8.70;3.57;;;;;;;12.95;100.00;95898.19;4950645;28;20031;-92
2023/03/22 07:06:06;;;;;;;10.57;3.70;;;;;;;13.20;100.00;95900.53;4941792;28;20039;-92
2023/03/22 07:08:39;;;;;;;7.43;3.23;;;;;;;13.40;100.00;95899.00;4938253;29;20031;-92
2023/03/22 07:11:14;;;;;;;7.37;3.20;;;;;;;13.58;100.00;95908.34;4925108;29;20035;-92
2023/03/22 07:13:44;;;;;;;6.80;2.80;;;;;;;14.14;100.00;95905.88;4923086;29;20132;-92
2023/03/22 07:16:14;;;;;;;8.33;2.47;;;;;;;13.89;100.00;95900.97;4927181;29;20043;-92
2023/03/22 07:18:50;;;;;;;7.73;2.83;;;;;;;14.66;100.00;95901.25;4957677;28;20030;-92
2023/03/22 07:21:20;;;;;;;5.37;2.63;;;;;;;14.28;100.00;95906.81;4940562;29;20449;-92
2023/03/22 07:23:54;;;;;;;5.57;2.53;;;;;;;14.53;100.00;95902.78;4938810;29;20040;-92
2023/03/22 07:26:30;;;;;;;6.30;2.50;;;;;;;15.27;100.00;95896.94;4926627;29;20042;-92
2023/03/22 07:28:57;;;;;;;4.83;2.27;;;;;;;15.52;100.00;95901.72;4926604;28;20060;-91
2023/03/22 07:31:28;;;;;;;4.53;2.27;;;;;;;15.16;100.00;95902.78;4925521;29;20035;-92
2023/03/22 07:34:28;;;;;;;4.93;2.40;;;;;;;15.01;100.00;95899.44;4941113;29;20032;-92
2023/03/22 07:37:02;;;;;;;5.37;2.30;;;;;;;15.11;100.00;95894.59;4960292;28;20039;-92
2023/03/22 07:39:29;;;;;;;5.20;2.47;;;;;;;15.40;100.00;95900.66;4944965;29;20339;-92
2023/03/22 07:41:54;;;;;;;7.17;3.13;;;;;;;16.05;100.00;95901.91;4961034;29;20020;-91
2023/03/22 07:44:23;;;;;;;4.87;2.20;;;;;;;16.16;100.00;95903.13;4950916;28;20039;-92
2023/03/22 07:47:25;;;;;;;4.25;1.90;;;;;;;17.25;100.00;95891.25;4892572;29;20196;-92
2023/03/22 07:50:15;;;;;;;4.97;3.08;;;;;;;17.52;100.00;95892.78;4900029;29;20626;-92
2023/03/22 07:52:44;;;;;;;4.43;1.58;;;;;;;17.88;100.00;95892.22;4927740;29;20122;-92
2023/03/22 07:55:12;;;;;;;5.00;2.22;;;;;;;18.48;100.00;95891.03;4928405;29;20033;-91
2023/03/22 07:57:38;;;;;;;4.22;2.35;;;;;;;18.50;100.00;95894.25;4928010;29;20536;-92
2023/03/22 08:00:05;;;;;;;4.32;2.03;;;;;;;18.05;100.00;95903.19;4925840;29;20035;-92
2023/03/22 08:03:12;;;;;;;4.15;1.80;;;;;;;18.26;100.00;95899.34;4940524;29;20035;-93
2023/03/22 08:06:06;;;;;;;9.13;2.58;;;;;;;18.42;100.00;95894.53;4928417;29;20035;-92
2023/03/22 08:08:36;;;;;;;4.30;2.20;;;;;;;18.19;100.00;95900.44;4936632;28;20370;-92
2023/03/22 08:11:04;;;;;;;6.82;2.75;;;;;;;17.66;100.00;95896.19;4947597;29;20066;-92
2023/03/22 08:13:35;;;;;;;4.10;1.77;;;;;;;18.50;100.00;95900.41;4924351;29;20039;-92
2023/03/22 08:16:25;;;;;;;4.13;1.90;;;;;;;18.38;100.00;95908.28;4926511;29;20038;-92
2023/03/22 08:18:51;;;;;;;4.57;2.17;;;;;;;18.80;100.00;95911.25;4930549;29;20050;-92
2023/03/22 08:21:21;;;;;;;4.40;1.92;;;;;;;19.32;100.00;95902.97;4930201;29;20031;-92
2023/03/22 08:24:05;;;;;;;4.57;2.15;;;;;;;18.73;97.92;95909.69;4941772;28;20043;-92
2023/03/22 08:26:50;;;;;;;4.05;1.80;;;;;;;18.87;95.98;95905.03;4937618;28;20095;-92
2023/03/22 08:29:29;;;;;;;3.90;2.13;;;;;;;19.27;94.73;95906.28;4920878;29;20143;-92
2023/03/22 08:32:01;;;;;;;5.32;2.25;;;;;;;19.66;91.34;95911.41;4938051;29;20040;-92
2023/03/22 17:13:36;;;;;;;11.93;6.10;;;;;;;16.24;94.94;95624.38;4952020;29;20512;-82
2023/03/22 17:16:01;;;;;;;4.80;2.10;;;;;;;16.08;93.29;95625.63;4945776;29;20074;-80
2023/03/22 17:18:35;;;;;;;3.25;1.20;;;;;;;16.10;94.04;95634.22;4938175;29;20043;-83
2023/03/22 17:21:17;;;;;;;2.83;1.17;;;;;;;15.94;92.45;95639.97;4932030;29;20051;-92
2023/03/22 17:23:47;;;;;;;3.53;1.00;;;;;;;15.79;91.51;95641.00;4942168;29;20477;-90
2023/03/22 17:26:16;;;;;;;3.78;0.73;;;;;;;15.70;92.61;95652.84;4952721;28;20027;-90
2023/03/22 17:28:44;;;;;;;3.38;1.40;;;;;;;15.69;91.83;95637.97;4951184;28;20035;-91
2023/03/22 17:31:14;;;;;;;7.60;2.30;;;;;;;15.67;94.88;95649.78;4954565;28;20039;-90
2023/03/22 17:33:48;;;;;;;6.25;2.17;;;;;;;15.54;95.72;95653.22;4937112;29;20075;-91
2023/03/22 17:36:15;;;;;;;6.85;2.35;;;;;;;15.34;94.27;95658.50;4941142;29;20031;-89
2023/03/22 17:38:41;;;;;;;8.77;3.40;;;;;;;15.31;95.70;95657.06;4923851;29;20035;-92
2023/03/22 17:41:11;;;;;;;8.93;3.47;;;;;;;15.20;95.15;95659.53;4930499;29;20106;-92
2023/03/22 17:43:36;;;;;;;18.17;9.70;;;;;;;15.08;96.26;95660.09;4941883;29;20047;-89
2023/03/22 17:46:03;;;;;;;17.08;9.43;;;;;;;14.81;97.69;95667.16;4948723;29;20034;-89
2023/03/22 17:48:29;;;;;;;13.77;7.10;;;;;;;14.85;98.27;95672.88;4937584;29;20122;-92
2023/03/22 17:50:55;;;;;;;12.20;4.63;;;;;;;14.78;98.13;95661.47;4924493;29;20027;-91
2023/03/22 17:53:48;;;;;;;8.37;4.07;;;;;;;14.80;97.25;95670.84;4920544;29;20067;-92
2023/03/22 17:56:18;;;;;;;8.85;4.60;;;;;;;14.56;98.36;95674.03;4939875;29;20118;-92
2023/03/22 17:58:45;;;;;;;9.10;4.77;;;;;;;14.61;98.22;95671.59;4923384;29;20027;-86
2023/03/22 18:01:17;;;;;;;7.83;3.07;;;;;;;14.52;97.80;95670.97;4931668;29;20130;-83
2023/03/22 18:03:48;;;;;;;7.43;4.57;;;;;;;14.49;99.12;95673.16;4920766;29;20063;-83
2023/03/22 18:06:15;;;;;;;12.63;7.83;;;;;;;14.27;99.07;95678.53;4948477;29;20854;-89
2023/03/22 18:08:41;;;;;;;12.43;7.17;;;;;;;14.27;99.87;95673.25;4935181;29;20031;-82
2023/03/22 18:11:10;;;;;;;6.37;4.00;;;;;;;14.22;100.00;95672.19;4921509;29;20029;-83
2023/03/22 18:13:41;;;;;;;4.43;2.20;;;;;;;14.25;100.00;95674.44;4916907;29;20966;-82
2023/03/22 18:16:08;;;;;;;4.03;1.40;;;;;;;14.09;100.00;95678.25;4917602;29;20132;-83
2023/03/22 18:18:37;;;;;;;4.67;1.53;;;;;;;14.09;100.00;95684.34;4932464;29;20023;-82
2023/03/22 18:21:16;;;;;;;4.63;1.30;;;;;;;13.97;100.00;95677.13;4918846;29;20055;-83
2023/03/22 18:23:43;;;;;;;5.17;1.60;;;;;;;13.99;100.00;95683.06;4928324;29;20046;-83
2023/03/22 18:26:12;;;;;;;3.90;1.97;;;;;;;13.87;100.00;95675.66;4950511;28;20027;-83
2023/03/22 18:28:41;;;;;;;3.40;1.30;;;;;;;13.86;100.00;95684.59;4934105;29;20042;-82
2023/03/22 18:31:12;;;;;;;6.43;1.80;;;;;;;13.73;100.00;95673.94;4918095;29;20813;-82
2023/03/22 18:33:56;;;;;;;5.90;2.27;;;;;;;13.60;100.00;95673.84;4910202;29;20039;-84
2023/03/22 18:36:26;;;;;;;5.30;2.53;;;;;;;13.66;100.00;95675.72;4951384;29;20497;-91
2023/03/22 18:38:52;;;;;;;5.90;2.87;;;;;;;13.50;100.00;95674.16;4916992;29;20027;-83
2023/03/22 18:41:22;;;;;;;6.80;3.57;;;;;;;13.48;100.00;95675.34;4923385;29;20054;-83
2023/03/22 18:43:51;;;;;;;4.70;2.40;;;;;;;13.53;100.00;95673.78;4941252;29;20040;-90
2023/03/22 18:46:22;;;;;;;5.00;2.13;;;;;;;13.54;100.00;95678.03;4959771;28;20059;-91
2023/03/22 18:48:56;;;;;;;4.43;2.13;;;;;;;13.51;100.00;95675.78;4957547;29;20047;-92
2023/03/22 18:52:04;;;;;;;3.50;1.67;;;;;;;13.60;100.00;95672.00;4942717;29;20589;-92
2023/03/22 18:54:30;;;;;;;7.80;2.08;;;;;;;13.56;100.00;95678.69;4918232;29;20099;-83
2023/03/22 18:56:56;;;;;;;5.63;1.40;;;;;;;13.51;100.00;95675.78;4932022;29;20565;-83
2023/03/22 18:59:22;;;;;;;8.47;3.43;;;;;;;13.51;100.00;95680.25;4919776;29;20114;-84
2023/03/22 19:01:49;;;;;;;6.57;3.77;;;;;;;13.51;100.00;95675.78;4918894;29;20043;-84
2023/03/22 19:04:26;;;;;;;5.83;2.60;;;;;;;13.48;100.00;95680.63;4920590;29;20034;-88
2023/03/22 19:07:04;;;;;;;5.63;2.83;;;;;;;13.48;100.00;95678.00;4920682;29;20038;-93
2023/03/22 19:09:33;;;;;;;8.80;3.67;;;;;;;13.44;100.00;95674.91;4924853;29;20043;-85
2023/03/22 19:12:02;;;;;;;20.23;12.90;;;;;;;13.53;100.00;95683.53;4963306;28;20031;-84
2023/03/22 19:14:28;;;;;;;6.27;3.27;;;;;;;13.39;100.00;95678.13;4920838;29;20066;-85
2023/03/22 19:17:15;;;;;;;6.70;3.20;;;;;;;13.42;100.00;95677.75;4920048;29;20035;-87
2023/03/22 19:19:53;;;;;;;5.63;3.03;;;;;;;13.32;100.00;95668.53;4936633;29;20040;-85
2023/03/22 19:22:32;;;;;;;4.30;2.00;;;;;;;13.30;100.00;95667.91;4944321;29;20039;-84
2023/03/22 19:25:06;;;;;;;4.27;1.80;;;;;;;13.16;100.00;95664.28;4937657;29;20031;-93
2023/03/22 19:27:40;;;;;;;3.83;2.20;;;;;;;12.98;100.00;95672.66;4925115;29;20074;-89
2023/03/22 19:30:07;;;;;;;3.60;1.88;;;;;;;13.01;100.00;95674.09;4920223;29;20126;-84
2023/03/22 19:33:01;;;;;;;3.60;1.87;;;;;;;12.93;100.00;95664.47;4920531;29;20502;-94
2023/03/22 19:35:27;;;;;;;;;;;;;;;12.87;100.00;95666.03;4948457;29;20050;-91
2023/03/22 19:38:09;;;;;;;4.37;1.60;;;;;;;12.87;100.00;95668.66;4930095;29;19954;-91
2023/03/22 19:40:41;;;;;;;3.27;1.20;;;;;;;12.79;100.00;95676.72;4929974;29;20039;-92
2023/03/22 19:43:10;;;;;;;4.35;1.40;;;;;;;12.71;100.00;95669.75;4910371;29;20251;-92
2023/03/22 19:45:40;;;;;;;3.23;1.57;;;;;;;12.77;100.00;95670.78;4927687;29;20031;-91
2023/03/22 19:48:11;;;;;;;2.73;1.27;;;;;;;12.66;100.00;95664.19;4927517;29;20359;-92
2023/03/22 19:50:41;;;;;;;7.77;1.60;;;;;;;12.64;100.00;95668.84;4930431;29;20039;-89
2023/03/22 19:53:09;;;;;;;4.33;1.80;;;;;;;12.65;100.00;95667.84;4949344;29;20034;-91
2023/03/22 19:55:36;;;;;;;4.93;2.70;;;;;;;12.67;100.00;95662.34;4958639;28;20061;-91
2023/03/22 19:58:02;;;;;;;4.30;1.83;;;;;;;12.67;100.00;95663.19;4924167;29;20031;-89
2023/03/22 20:00:28;;;;;;;4.77;1.60;;;;;;;12.62;100.00;95665.56;4930515;29;20036;-89
2023/03/22 20:02:54;;;;;;;4.13;1.93;;;;;;;12.65;100.00;95664.38;4924833;28;20043;-90
2023/03/22 20:05:21;;;;;;;3.20;1.50;;;;;;;12.64;100.00;95663.56;4956746;28;20039;-91
2023/03/22 20:07:53;;;;;;;3.97;2.40;;;;;;;12.68;100.00;95664.03;4936421;29;20043;-89
2023/03/22 20:10:22;;;;;;;3.40;1.77;;;;;;;12.68;100.00;95670.09;4927358;29;20086;-88
2023/03/22 20:12:55;;;;;;;2.07;1.33;;;;;;;12.73;100.00;95661.63;4925158;29;20114;-90
2023/03/22 20:15:21;;;;;;;3.58;1.88;;;;;;;12.69;100.00;95661.19;4955400;29;20046;-87
2023/03/22 20:17:47;;;;;;;3.83;1.53;;;;;;;12.73;100.00;95661.63;4940104;29;20039;-87
2023/03/22 20:20:17;;;;;;;4.53;1.50;;;;;;;12.76;100.00;95666.53;4924270;29;20027;-84
2023/03/22 20:22:49;;;;;;;4.43;1.60;;;;;;;12.76;100.00;95661.25;4953093;28;20031;-83
2023/03/22 20:25:22;;;;;;;5.13;1.80;;;;;;;12.74;100.00;95658.81;4933558;29;20537;-85
2023/03/22 20:27:50;;;;;;;3.67;1.17;;;;;;;12.74;100.00;95663.25;4921796;29;20126;-84
2023/03/22 20:30:21;;;;;;;1.70;1.10;;;;;;;12.75;100.00;95662.25;4937301;29;20031;-86
2023/03/22 20:32:47;;;;;;;4.93;2.40;;;;;;;12.69;100.00;95666.47;4914254;29;20090;-85
2023/03/22 20:35:19;;;;;;;5.13;2.80;;;;;;;12.68;100.00;95658.75;4917326;29;20031;-85
2023/03/22 20:37:45;;;;;;;6.20;2.20;;;;;;;12.54;100.00;95654.28;4935913;28;20575;-85
2023/03/22 20:40:11;;;;;;;5.20;2.03;;;;;;;12.44;100.00;95651.94;4942026;29;20049;-85
2023/03/22 20:42:38;;;;;;;5.10;2.60;;;;;;;12.43;100.00;95653.78;4922277;29;20035;-84